createdAt,value
2016-12-08T00:02:53.810Z,1022.16
2016-12-08T00:07:50.451Z,1022.09
2016-12-08T00:12:47.344Z,1022.13
2016-12-08T00:17:43.949Z,1022.11
2016-12-08T00:22:40.708Z,1022.15
2016-12-08T00:27:37.390Z,1022.23
2016-12-08T00:32:33.965Z,1022.15
2016-12-08T00:37:30.681Z,1022.06
2016-12-08T00:42:27.441Z,1022.02
2016-12-08T00:47:24.239Z,1021.95
2016-12-08T00:52:21.714Z,1021.99
2016-12-08T00:57:22.644Z,1021.99
2016-12-08T01:02:18.195Z,1022.13
2016-12-08T01:07:14.833Z,1022.16
2016-12-08T01:12:11.544Z,1022.09
2016-12-08T01:17:08.119Z,1022.19
2016-12-08T01:22:05.349Z,1022.16
2016-12-08T01:27:02.172Z,1022.16
2016-12-08T01:31:58.609Z,1022.21
2016-12-08T01:36:56.339Z,1022.15
2016-12-08T01:41:53.187Z,1022.28
2016-12-08T01:46:50.133Z,1022.27
2016-12-08T01:51:47.521Z,1022.17
2016-12-08T01:56:43.972Z,1022.22
2016-12-08T02:01:40.742Z,1022.23
2016-12-08T02:06:37.407Z,1022.43
2016-12-08T02:11:34.340Z,1022.43
2016-12-08T02:16:31.405Z,1022.26
2016-12-08T02:21:28.983Z,1022.26
2016-12-08T02:26:25.739Z,1022.18
2016-12-08T02:31:23.008Z,1022.11
2016-12-08T02:36:19.956Z,1022.23
2016-12-08T02:41:16.929Z,1022.22
2016-12-08T02:46:13.547Z,1022.16
2016-12-08T02:51:10.339Z,1022.22
2016-12-08T02:56:07.608Z,1022.30
2016-12-08T03:01:04.465Z,1022.12
2016-12-08T03:06:02.032Z,1022.31
2016-12-08T03:10:59.203Z,1022.24
2016-12-08T03:15:55.794Z,1022.12
2016-12-08T03:20:52.203Z,1022.06
2016-12-08T03:25:49.372Z,1022.08
2016-12-08T03:30:46.491Z,1022.04
2016-12-08T03:35:42.945Z,1022.01
2016-12-08T03:40:39.537Z,1021.97
2016-12-08T03:45:36.359Z,1021.94
2016-12-08T03:50:32.706Z,1021.89
2016-12-08T03:55:29.616Z,1021.80
2016-12-08T04:00:26.089Z,1021.88
2016-12-08T04:05:22.373Z,1021.91
2016-12-08T04:10:19.237Z,1021.99
2016-12-08T04:15:16.975Z,1022.12
2016-12-08T04:20:13.573Z,1022.01
2016-12-08T04:25:10.287Z,1021.84
2016-12-08T04:30:06.895Z,1021.68
2016-12-08T04:35:04.650Z,1021.58
2016-12-08T04:40:01.365Z,1021.68
2016-12-08T04:44:58.240Z,1021.64
2016-12-08T04:49:55.005Z,1021.77
2016-12-08T04:54:51.610Z,1021.82
2016-12-08T04:59:48.472Z,1021.93
2016-12-08T05:04:44.864Z,1021.83
2016-12-08T05:09:41.781Z,1021.82
2016-12-08T05:14:38.388Z,1021.69
2016-12-08T05:19:35.239Z,1021.73
2016-12-08T05:24:31.487Z,1021.82
2016-12-08T05:29:28.076Z,1021.81
2016-12-08T05:34:25.004Z,1021.84
2016-12-08T05:39:21.694Z,1021.85
2016-12-08T05:44:18.315Z,1021.78
2016-12-08T05:49:15.386Z,1021.79
2016-12-08T05:54:12.581Z,1021.79
2016-12-08T05:59:10.028Z,1021.79
2016-12-08T06:04:06.708Z,1021.88
2016-12-08T06:09:04.806Z,1021.80
2016-12-08T06:14:01.309Z,1021.76
2016-12-08T06:19:03.289Z,1021.76
2016-12-08T06:34:03.255Z,1021.80
2016-12-08T06:44:06.220Z,1021.79
2016-12-08T06:49:03.550Z,1021.89
2016-12-08T06:54:00.029Z,1021.85
2016-12-08T06:58:58.096Z,1021.91
2016-12-08T07:03:56.038Z,1021.98
2016-12-08T07:08:52.902Z,1021.94
2016-12-08T07:13:49.977Z,1022.03
2016-12-08T07:18:46.991Z,1022.03
2016-12-08T07:23:43.402Z,1022.04
2016-12-08T07:28:39.957Z,1022.12
2016-12-08T07:38:36.534Z,1022.04
2016-12-08T07:43:33.195Z,1022.03
2016-12-08T07:48:29.755Z,1022.14
2016-12-08T07:53:26.027Z,1022.04
2016-12-08T07:58:22.821Z,1022.11
2016-12-08T08:03:19.577Z,1022.21
2016-12-08T08:08:16.057Z,1021.98
2016-12-08T08:13:13.393Z,1022.07
2016-12-08T08:18:09.924Z,1021.93
2016-12-08T08:23:06.588Z,1021.82
2016-12-08T08:28:04.687Z,1021.87
2016-12-08T08:33:01.443Z,1021.92
2016-12-08T08:37:58.406Z,1021.88
2016-12-08T08:42:56.155Z,1021.89
2016-12-08T08:47:52.764Z,1021.87
2016-12-08T08:52:49.540Z,1021.95
2016-12-08T08:57:46.407Z,1021.84
2016-12-08T09:02:43.460Z,1021.82
2016-12-08T09:07:41.457Z,1021.86
2016-12-08T09:12:40.567Z,1021.90
2016-12-08T09:22:39.095Z,1021.74
2016-12-08T09:27:35.329Z,1021.74
2016-12-08T09:32:34.235Z,1021.66
2016-12-08T09:37:31.063Z,1021.52
2016-12-08T09:42:28.260Z,1021.47
2016-12-08T09:47:24.907Z,1021.55
2016-12-08T09:52:21.477Z,1021.56
2016-12-08T09:57:18.302Z,1021.41
2016-12-08T10:02:14.699Z,1021.47
2016-12-08T10:07:11.362Z,1021.34
2016-12-08T10:12:08.083Z,1021.27
2016-12-08T10:17:04.636Z,1021.28
2016-12-08T10:22:01.588Z,1021.26
2016-12-08T10:26:58.716Z,1021.27
2016-12-08T10:31:55.422Z,1021.12
2016-12-08T10:36:52.335Z,1021.15
2016-12-08T10:41:49.450Z,1021.16
2016-12-08T10:46:45.933Z,1021.12
2016-12-08T10:51:42.541Z,1020.94
2016-12-08T10:56:39.087Z,1020.96
2016-12-08T11:01:36.007Z,1020.86
2016-12-08T11:06:33.546Z,1020.80
2016-12-08T11:11:31.533Z,1020.70
2016-12-08T11:16:28.567Z,1020.79
2016-12-08T11:21:25.942Z,1020.72
2016-12-08T11:26:22.731Z,1020.67
2016-12-08T11:31:19.722Z,1020.62
2016-12-08T11:36:16.528Z,1020.67
2016-12-08T11:41:13.261Z,1020.51
2016-12-08T11:46:09.990Z,1020.56
2016-12-08T11:51:06.956Z,1020.54
2016-12-08T11:56:03.535Z,1020.51
2016-12-08T12:01:00.209Z,1020.46
2016-12-08T12:05:57.793Z,1020.43
2016-12-08T12:10:54.643Z,1020.52
2016-12-08T12:15:51.093Z,1020.36
2016-12-08T12:20:49.058Z,1020.51
2016-12-08T12:25:45.918Z,1020.31
2016-12-08T12:30:42.668Z,1020.42
2016-12-08T12:35:42.609Z,1020.22
2016-12-08T12:40:39.543Z,1020.27
2016-12-08T12:45:35.802Z,1020.31
2016-12-08T12:50:32.461Z,1020.40
2016-12-08T12:55:29.126Z,1020.39
2016-12-08T13:00:25.747Z,1020.33
2016-12-08T13:05:22.215Z,1020.25
2016-12-08T13:10:18.551Z,1020.17
2016-12-08T13:15:15.800Z,1019.96
2016-12-08T13:20:12.103Z,1020.07
2016-12-08T13:25:09.239Z,1020.07
2016-12-08T13:30:05.658Z,1020.07
2016-12-08T13:35:02.224Z,1019.93
2016-12-08T13:39:59.146Z,1019.76
2016-12-08T13:44:55.597Z,1019.68
2016-12-08T13:49:52.183Z,1019.59
2016-12-08T13:54:49.095Z,1019.62
2016-12-08T13:59:46.411Z,1019.70
2016-12-08T14:04:43.127Z,1019.84
2016-12-08T14:09:39.547Z,1019.87
2016-12-08T14:14:35.706Z,1019.64
2016-12-08T14:19:33.593Z,1019.70
2016-12-08T14:24:29.767Z,1019.61
2016-12-08T14:29:26.917Z,1019.45
2016-12-08T14:34:23.620Z,1019.70
2016-12-08T14:39:20.023Z,1019.63
2016-12-08T14:44:16.681Z,1019.49
2016-12-08T14:49:13.265Z,1019.73
2016-12-08T14:54:09.781Z,1019.74
2016-12-08T14:59:06.200Z,1019.96
2016-12-08T15:04:03.864Z,1019.79
2016-12-08T15:09:00.523Z,1019.82
2016-12-08T15:13:57.122Z,1019.80
2016-12-08T15:18:53.385Z,1019.72
2016-12-08T15:23:50.611Z,1019.78
2016-12-08T15:28:47.286Z,1019.57
2016-12-08T15:33:45.019Z,1019.49
2016-12-08T15:38:41.200Z,1019.41
2016-12-08T15:43:37.847Z,1019.04
2016-12-08T15:48:34.576Z,1019.14
2016-12-08T15:53:31.126Z,1019.22
2016-12-08T15:58:28.987Z,1019.18
2016-12-08T16:03:25.504Z,1019.04
2016-12-08T16:08:22.200Z,1019.47
2016-12-08T16:13:18.632Z,1019.29
2016-12-08T16:18:15.672Z,1019.31
2016-12-08T16:23:13.579Z,1019.25
2016-12-08T16:28:09.749Z,1019.36
2016-12-08T16:33:06.940Z,1019.28
2016-12-08T16:38:03.621Z,1019.00
2016-12-08T16:43:00.438Z,1019.10
2016-12-08T16:47:56.998Z,1019.13
2016-12-08T16:52:52.885Z,1019.14
2016-12-08T16:57:49.659Z,1019.32
2016-12-08T17:02:46.189Z,1019.37
2016-12-08T17:07:42.619Z,1019.41
2016-12-08T17:12:39.065Z,1019.51
2016-12-08T17:17:35.618Z,1019.39
2016-12-08T17:22:32.270Z,1019.35
2016-12-08T17:27:28.604Z,1019.32
2016-12-08T17:32:25.821Z,1019.45
2016-12-08T17:37:22.280Z,1019.58
2016-12-08T17:42:18.918Z,1019.46
2016-12-08T17:47:15.355Z,1019.33
2016-12-08T17:52:11.891Z,1019.35
2016-12-08T17:57:08.711Z,1019.17
2016-12-08T18:02:05.068Z,1019.34
2016-12-08T18:07:01.295Z,1019.28
2016-12-08T18:11:57.476Z,1019.17
2016-12-08T18:16:54.274Z,1019.57
2016-12-08T18:21:50.962Z,1019.57
2016-12-08T18:26:47.513Z,1019.74
2016-12-08T18:31:44.092Z,1019.68
2016-12-08T18:36:40.772Z,1019.56
2016-12-08T18:41:37.639Z,1019.76
2016-12-08T18:46:34.345Z,1019.75
2016-12-08T18:51:30.684Z,1019.71
2016-12-08T18:56:27.119Z,1019.57
2016-12-08T19:01:23.660Z,1019.56
2016-12-08T19:06:20.269Z,1019.48
2016-12-08T19:11:16.648Z,1019.36
2016-12-08T19:16:13.367Z,1019.23
2016-12-08T19:21:09.776Z,1019.03
2016-12-08T19:26:06.204Z,1019.20
2016-12-08T19:31:03.236Z,1019.19
2016-12-08T19:35:59.710Z,1019.04
2016-12-08T19:40:56.171Z,1019.08
2016-12-08T19:45:53.291Z,1019.14
2016-12-08T19:50:50.302Z,1019.30
2016-12-08T19:55:49.188Z,1019.21
2016-12-08T20:00:45.226Z,1019.29
2016-12-08T20:05:43.404Z,1019.43
2016-12-08T20:10:39.480Z,1019.50
2016-12-08T20:15:38.154Z,1019.57
2016-12-08T20:20:34.613Z,1019.51
2016-12-08T20:25:35.037Z,1019.52
2016-12-08T20:30:34.870Z,1019.77
2016-12-08T20:35:31.607Z,1019.83
2016-12-08T20:40:28.006Z,1019.80
2016-12-08T20:45:26.672Z,1019.75
2016-12-08T20:50:22.715Z,1019.71
2016-12-08T20:55:19.533Z,1019.67
2016-12-08T21:00:16.774Z,1019.68
2016-12-08T21:05:14.092Z,1019.78
2016-12-08T21:10:10.629Z,1019.76
2016-12-08T21:15:07.215Z,1019.72
2016-12-08T21:20:03.802Z,1019.74
2016-12-08T21:25:00.395Z,1019.83
2016-12-08T21:29:56.702Z,1019.82
2016-12-08T21:34:54.269Z,1019.83
2016-12-08T21:39:50.311Z,1019.87
2016-12-08T21:44:46.613Z,1019.92
2016-12-08T21:49:43.501Z,1019.99
2016-12-08T21:54:39.854Z,1019.95
2016-12-08T21:59:36.798Z,1020.06
2016-12-08T22:04:33.194Z,1020.03
2016-12-08T22:09:30.294Z,1020.08
2016-12-08T22:14:26.975Z,1020.10
2016-12-08T22:19:23.319Z,1020.09
2016-12-08T22:24:21.143Z,1020.01
2016-12-08T22:29:20.278Z,1020.14
2016-12-08T22:34:16.208Z,1020.09
2016-12-08T22:39:12.968Z,1020.10
2016-12-08T22:44:10.163Z,1020.07
2016-12-08T22:49:06.509Z,1020.09
2016-12-08T22:54:02.992Z,1020.07
2016-12-08T22:58:59.797Z,1020.19
2016-12-08T23:03:56.463Z,1020.29
2016-12-08T23:08:52.860Z,1020.26
2016-12-08T23:13:49.322Z,1020.24
2016-12-08T23:18:45.823Z,1020.20
2016-12-08T23:23:42.405Z,1020.09
2016-12-08T23:28:38.585Z,1019.98
2016-12-08T23:33:37.776Z,1019.94
2016-12-08T23:38:33.867Z,1019.94
2016-12-08T23:43:30.300Z,1019.82
2016-12-08T23:48:26.760Z,1019.88
2016-12-08T23:53:24.293Z,1019.80
2016-12-08T23:58:20.688Z,1019.74
